Time,TemperatureF,DewpointF,PressureIn,WindDirection,WindDirectionDegrees,WindSpeedMPH,WindSpeedGustMPH,Humidity,HourlyPrecipIn,Conditions,Clouds,dailyrainin,SoftwareType,DateUTC
2013-10-11 00:00:00,65.3,62.9,29.93,North,355,0.0,0.0,92,0.00,,OVC055,0.00,VWS V14.01,2013-10-11 04:00:00,
2013-10-11 00:05:00,65.3,62.9,29.92,North,355,0.0,0.0,92,0.00,,OVC055,0.00,VWS V14.01,2013-10-11 04:05:00,
2013-10-11 00:10:00,65.2,62.8,29.92,North,355,0.0,0.0,92,0.00,,OVC055,0.00,VWS V14.01,2013-10-11 04:10:00,
2013-10-11 00:15:00,65.3,62.9,29.92,North,355,0.0,0.0,92,0.00,,OVC055,0.00,VWS V14.01,2013-10-11 04:15:00,
2013-10-11 00:21:00,65.2,62.8,29.92,North,355,0.0,0.0,92,0.00,,OVC055,0.00,VWS V14.01,2013-10-11 04:21:00,
2013-10-11 00:30:00,65.1,62.7,29.92,North,355,0.0,0.0,92,0.00,,OVC055,0.00,VWS V14.01,2013-10-11 04:30:00,
2013-10-11 00:36:00,65.0,62.6,29.92,North,355,0.0,0.0,92,0.00,,OVC055,0.00,VWS V14.01,2013-10-11 04:36:00,
2013-10-11 00:41:00,64.9,62.5,29.92,North,355,0.0,0.0,92,0.00,,OVC055,0.00,VWS V14.01,2013-10-11 04:41:00,
2013-10-11 00:45:00,64.7,62.3,29.92,North,355,0.0,0.0,92,0.00,,CLR,0.00,VWS V14.01,2013-10-11 04:45:00,
2013-10-11 00:46:00,64.7,62.3,29.92,North,355,0.0,0.0,92,0.00,,OVC055,0.00,VWS V14.01,2013-10-11 04:46:00,
2013-10-11 00:51:00,64.5,62.1,29.92,North,355,0.0,0.0,92,0.00,,OVC055,0.00,VWS V14.01,2013-10-11 04:51:00,
2013-10-11 00:56:00,64.3,61.9,29.91,North,355,0.0,0.0,92,0.00,,OVC055,0.00,VWS V14.01,2013-10-11 04:56:00,
2013-10-11 01:00:00,64.1,62.0,29.91,North,355,0.0,0.0,93,0.00,,CLR,0.00,VWS V14.01,2013-10-11 05:00:00,
2013-10-11 01:01:00,64.1,62.0,29.91,North,355,0.0,0.0,93,0.00,,BKN055,0.00,VWS V14.01,2013-10-11 05:01:00,
2013-10-11 01:06:00,64.0,61.9,29.91,North,355,0.0,0.0,93,0.00,,BKN055,0.00,VWS V14.01,2013-10-11 05:06:00,
2013-10-11 01:11:00,63.9,61.8,29.91,North,355,0.0,0.0,93,0.00,,BKN055,0.00,VWS V14.01,2013-10-11 05:11:00,
2013-10-11 01:15:00,63.8,61.7,29.92,North,355,0.0,0.0,93,0.00,,CLR,0.00,VWS V14.01,2013-10-11 05:15:00,
2013-10-11 01:16:00,63.8,61.7,29.92,North,355,0.0,0.0,93,0.00,,BKN055,0.00,VWS V14.01,2013-10-11 05:16:00,
2013-10-11 01:21:00,63.8,61.7,29.92,North,355,0.0,0.0,93,0.00,,BKN055,0.00,VWS V14.01,2013-10-11 05:21:00,
2013-10-11 01:26:00,63.8,62.0,29.91,North,355,0.0,0.0,94,0.00,,BKN055,0.00,VWS V14.01,2013-10-11 05:26:00,
2013-10-11 01:30:00,63.7,61.9,29.92,North,355,0.0,0.0,94,0.00,,CLR,0.00,VWS V14.01,2013-10-11 05:30:00,
2013-10-11 01:31:00,63.7,62.0,29.91,North,355,0.0,0.0,94,0.00,,BKN055,0.00,VWS V14.01,2013-10-11 05:31:00,
2013-10-11 01:36:00,63.6,61.8,29.92,North,355,0.0,0.0,94,0.00,,BKN055,0.00,VWS V14.01,2013-10-11 05:36:00,
2013-10-11 01:41:00,63.5,61.8,29.91,North,355,0.0,0.0,94,0.00,,BKN055,0.00,VWS V14.01,2013-10-11 05:41:00,
2013-10-11 01:45:00,63.4,61.7,29.92,North,355,0.0,0.0,94,0.00,,CLR,0.00,VWS V14.01,2013-10-11 05:45:00,
2013-10-11 01:46:00,63.4,61.7,29.91,North,355,0.0,0.0,94,0.00,,BKN055,0.00,VWS V14.01,2013-10-11 05:46:00,
2013-10-11 01:51:00,63.2,61.5,29.92,North,355,0.0,0.0,94,0.00,,BKN055,0.00,VWS V14.01,2013-10-11 05:51:00,
2013-10-11 01:56:00,63.1,61.3,29.92,North,355,0.0,0.0,94,0.00,,BKN055,0.00,VWS V14.01,2013-10-11 05:56:00,
2013-10-11 02:00:00,62.9,61.2,29.92,North,355,0.0,0.0,94,0.00,,CLR,0.00,VWS V14.01,2013-10-11 06:00:00,
2013-10-11 02:01:00,62.9,61.2,29.92,North,355,0.0,0.0,94,0.00,,BKN045,0.00,VWS V14.01,2013-10-11 06:01:00,
2013-10-11 02:06:00,62.7,61.0,29.92,North,355,0.0,0.0,94,0.00,,BKN045,0.00,VWS V14.01,2013-10-11 06:06:00,
2013-10-11 02:11:00,62.6,60.8,29.92,North,355,0.0,0.0,94,0.00,,BKN045,0.00,VWS V14.01,2013-10-11 06:11:00,
2013-10-11 02:15:00,62.4,60.7,29.92,North,355,0.0,0.0,94,0.00,,CLR,0.00,VWS V14.01,2013-10-11 06:15:00,
2013-10-11 02:16:00,62.4,60.7,29.92,North,355,0.0,0.0,94,0.00,,BKN045,0.00,VWS V14.01,2013-10-11 06:16:00,
2013-10-11 02:21:00,62.3,60.8,29.92,North,355,0.0,0.0,95,0.00,,BKN045,0.00,VWS V14.01,2013-10-11 06:21:00,
2013-10-11 02:26:00,62.1,60.7,29.91,North,355,0.0,0.0,95,0.00,,BKN045,0.00,VWS V14.01,2013-10-11 06:26:00,
2013-10-11 02:30:00,62.1,60.7,29.91,North,355,0.0,0.0,95,0.00,,CLR,0.00,VWS V14.01,2013-10-11 06:30:00,
2013-10-11 02:31:00,62.1,60.7,29.91,North,355,0.0,0.0,95,0.00,,BKN045,0.00,VWS V14.01,2013-10-11 06:31:00,
2013-10-11 02:36:00,62.0,60.6,29.91,North,355,0.0,0.0,95,0.00,,BKN045,0.00,VWS V14.01,2013-10-11 06:36:00,
2013-10-11 02:41:00,62.0,60.6,29.91,North,355,0.0,0.0,95,0.00,,BKN045,0.00,VWS V14.01,2013-10-11 06:41:00,
2013-10-11 02:45:00,62.1,60.7,29.91,North,355,0.0,0.0,95,0.00,,CLR,0.00,VWS V14.01,2013-10-11 06:45:00,
2013-10-11 02:46:00,62.1,60.7,29.91,North,355,0.0,0.0,95,0.00,,BKN045,0.00,VWS V14.01,2013-10-11 06:46:00,
2013-10-11 02:51:00,62.2,60.8,29.91,North,355,0.0,0.0,95,0.00,,BKN045,0.00,VWS V14.01,2013-10-11 06:51:00,
2013-10-11 02:56:00,62.3,60.8,29.91,North,355,0.0,0.0,95,0.00,,BKN045,0.00,VWS V14.01,2013-10-11 06:56:00,
2013-10-11 03:00:00,62.3,61.2,29.91,North,355,0.0,0.0,96,0.00,,CLR,0.00,VWS V14.01,2013-10-11 07:00:00,
2013-10-11 03:01:00,62.3,61.2,29.91,North,355,0.0,0.0,96,0.00,,BKN055,0.00,VWS V14.01,2013-10-11 07:01:00,
2013-10-11 03:06:00,62.4,61.2,29.91,North,355,0.0,0.0,96,0.00,,BKN055,0.00,VWS V14.01,2013-10-11 07:06:00,
2013-10-11 03:12:00,62.5,61.3,29.91,North,355,0.0,0.0,96,0.00,,BKN055,0.00,VWS V14.01,2013-10-11 07:12:00,
2013-10-11 03:15:00,62.6,61.5,29.91,North,355,0.0,0.0,96,0.00,,CLR,0.00,VWS V14.01,2013-10-11 07:15:00,
2013-10-11 03:17:00,62.6,61.5,29.91,North,355,0.0,0.0,96,0.00,,BKN055,0.00,VWS V14.01,2013-10-11 07:17:00,
2013-10-11 03:22:00,62.7,61.5,29.91,North,355,0.0,0.0,96,0.00,,BKN055,0.00,VWS V14.01,2013-10-11 07:22:00,
2013-10-11 03:27:00,62.8,61.7,29.91,North,355,0.0,0.0,96,0.00,,BKN055,0.00,VWS V14.01,2013-10-11 07:27:00,
2013-10-11 03:30:00,62.8,61.7,29.91,North,355,0.0,0.0,96,0.00,,CLR,0.00,VWS V14.01,2013-10-11 07:30:00,
2013-10-11 03:32:00,62.9,61.8,29.91,North,355,0.0,0.0,96,0.00,,BKN055,0.00,VWS V14.01,2013-10-11 07:32:00,
2013-10-11 03:37:00,62.9,61.8,29.91,North,355,0.0,0.0,96,0.00,,BKN055,0.00,VWS V14.01,2013-10-11 07:37:00,
2013-10-11 03:42:00,63.0,61.8,29.91,North,355,0.0,0.0,96,0.00,,BKN055,0.00,VWS V14.01,2013-10-11 07:42:00,
2013-10-11 03:45:00,63.0,61.8,29.91,North,355,0.0,0.0,96,0.00,,CLR,0.00,VWS V14.01,2013-10-11 07:45:00,
2013-10-11 03:47:00,63.0,61.8,29.91,North,355,0.0,0.0,96,0.00,,BKN055,0.00,VWS V14.01,2013-10-11 07:47:00,
2013-10-11 03:52:00,63.1,61.9,29.91,North,355,0.0,0.0,96,0.00,,BKN055,0.00,VWS V14.01,2013-10-11 07:52:00,
2013-10-11 03:57:00,63.1,61.9,29.91,North,355,0.0,0.0,96,0.00,,BKN055,0.00,VWS V14.01,2013-10-11 07:57:00,
2013-10-11 04:00:00,63.2,62.0,29.91,North,355,0.0,0.0,96,0.00,,CLR,0.00,VWS V14.01,2013-10-11 08:00:00,
2013-10-11 04:02:00,63.1,61.9,29.91,North,355,0.0,0.0,96,0.00,,OVC050,0.00,VWS V14.01,2013-10-11 08:02:00,
2013-10-11 04:07:00,63.1,61.9,29.91,North,355,0.0,0.0,96,0.00,,OVC050,0.00,VWS V14.01,2013-10-11 08:07:00,
2013-10-11 04:12:00,63.2,62.0,29.91,North,355,0.0,0.0,96,0.00,,OVC050,0.00,VWS V14.01,2013-10-11 08:12:00,
2013-10-11 04:15:00,63.2,62.0,29.91,North,355,0.0,0.0,96,0.00,,CLR,0.00,VWS V14.01,2013-10-11 08:15:00,
2013-10-11 04:17:00,63.2,62.0,29.91,North,355,0.0,0.0,96,0.00,,OVC050,0.00,VWS V14.01,2013-10-11 08:17:00,
2013-10-11 04:22:00,63.2,61.8,29.91,North,355,0.0,0.0,95,0.00,,OVC050,0.00,VWS V14.01,2013-10-11 08:22:00,
2013-10-11 04:27:00,63.2,61.8,29.91,North,355,0.0,0.0,95,0.00,,OVC050,0.00,VWS V14.01,2013-10-11 08:27:00,
2013-10-11 04:30:00,63.3,61.8,29.90,North,355,0.0,0.0,95,0.00,,CLR,0.00,VWS V14.01,2013-10-11 08:30:00,
2013-10-11 04:32:00,63.3,61.8,29.90,North,355,0.0,0.0,95,0.00,,OVC050,0.00,VWS V14.01,2013-10-11 08:32:00,
2013-10-11 04:37:00,63.3,61.8,29.91,North,355,0.0,0.0,95,0.00,,OVC050,0.00,VWS V14.01,2013-10-11 08:37:00,
2013-10-11 04:42:00,63.3,61.8,29.91,North,355,0.0,0.0,95,0.00,,OVC050,0.00,VWS V14.01,2013-10-11 08:42:00,
2013-10-11 04:45:00,63.3,61.8,29.90,North,355,0.0,0.0,95,0.00,,CLR,0.00,VWS V14.01,2013-10-11 08:45:00,
2013-10-11 04:47:00,63.4,62.0,29.91,North,355,0.0,0.0,95,0.00,,OVC050,0.00,VWS V14.01,2013-10-11 08:47:00,
2013-10-11 04:52:00,63.4,62.0,29.91,North,355,0.0,0.0,95,0.00,,OVC050,0.00,VWS V14.01,2013-10-11 08:52:00,
2013-10-11 04:57:00,63.5,62.0,29.91,North,355,0.0,0.0,95,0.00,,OVC050,0.00,VWS V14.01,2013-10-11 08:57:00,
2013-10-11 05:00:00,63.5,62.0,29.91,North,355,0.0,0.0,95,0.00,,CLR,0.00,VWS V14.01,2013-10-11 09:00:00,
2013-10-11 05:02:00,63.5,62.0,29.91,North,355,0.0,0.0,95,0.00,,OVC050,0.00,VWS V14.01,2013-10-11 09:02:00,
2013-10-11 05:07:00,63.5,62.0,29.91,North,355,0.0,0.0,95,0.00,,OVC050,0.00,VWS V14.01,2013-10-11 09:07:00,
2013-10-11 05:12:00,63.5,62.0,29.91,North,355,0.0,0.0,95,0.00,,OVC050,0.00,VWS V14.01,2013-10-11 09:12:00,
2013-10-11 05:15:00,63.5,62.0,29.91,North,355,0.0,0.0,95,0.00,,CLR,0.00,VWS V14.01,2013-10-11 09:15:00,
2013-10-11 05:17:00,63.5,62.0,29.91,North,355,0.0,0.0,95,0.00,,OVC050,0.00,VWS V14.01,2013-10-11 09:17:00,
2013-10-11 05:22:00,63.6,62.2,29.92,North,355,0.0,0.0,95,0.00,,OVC050,0.00,VWS V14.01,2013-10-11 09:22:00,
2013-10-11 05:27:00,63.6,62.2,29.92,North,355,0.0,0.0,95,0.00,,OVC050,0.00,VWS V14.01,2013-10-11 09:27:00,
2013-10-11 05:30:00,63.6,62.2,29.92,North,355,0.0,0.0,95,0.00,,CLR,0.00,VWS V14.01,2013-10-11 09:30:00,
2013-10-11 05:32:00,63.6,62.2,29.92,North,355,0.0,0.0,95,0.00,,OVC050,0.00,VWS V14.01,2013-10-11 09:32:00,
2013-10-11 05:37:00,63.6,62.2,29.92,North,355,0.0,0.0,95,0.00,,OVC050,0.00,VWS V14.01,2013-10-11 09:37:00,
2013-10-11 05:42:00,63.6,62.2,29.92,North,355,0.0,0.0,95,0.00,,OVC050,0.00,VWS V14.01,2013-10-11 09:42:00,
2013-10-11 05:45:00,63.6,62.2,29.92,North,355,0.0,0.0,95,0.00,,CLR,0.00,VWS V14.01,2013-10-11 09:45:00,
2013-10-11 05:47:00,63.6,62.2,29.92,North,355,0.0,0.0,95,0.00,,OVC050,0.00,VWS V14.01,2013-10-11 09:47:00,
2013-10-11 05:52:00,63.6,62.2,29.92,North,355,0.0,0.0,95,0.00,,OVC050,0.00,VWS V14.01,2013-10-11 09:52:00,
2013-10-11 05:57:00,63.6,62.2,29.92,North,355,0.0,0.0,95,0.00,,OVC050,0.00,VWS V14.01,2013-10-11 09:57:00,
2013-10-11 06:00:00,63.7,62.2,29.92,North,355,0.0,0.0,95,0.00,,CLR,0.00,VWS V14.01,2013-10-11 10:00:00,
2013-10-11 06:02:00,63.7,62.2,29.92,North,355,0.0,0.0,95,0.00,,OVC050,0.00,VWS V14.01,2013-10-11 10:02:00,
2013-10-11 06:07:00,63.7,62.2,29.92,North,355,0.0,0.0,95,0.00,,OVC050,0.00,VWS V14.01,2013-10-11 10:07:00,
2013-10-11 06:13:00,63.7,62.2,29.92,North,355,0.0,0.0,95,0.00,,OVC050,0.00,VWS V14.01,2013-10-11 10:13:00,
2013-10-11 06:15:00,63.7,62.2,29.92,North,355,0.0,0.0,95,0.00,,CLR,0.00,VWS V14.01,2013-10-11 10:15:00,
2013-10-11 06:18:00,63.7,62.2,29.92,North,355,0.0,0.0,95,0.00,,OVC050,0.00,VWS V14.01,2013-10-11 10:18:00,
2013-10-11 06:23:00,63.7,62.2,29.92,North,355,0.0,0.0,95,0.00,,OVC050,0.00,VWS V14.01,2013-10-11 10:23:00,
2013-10-11 06:28:00,63.7,62.2,29.93,North,355,0.0,0.0,95,0.00,,OVC050,0.00,VWS V14.01,2013-10-11 10:28:00,
2013-10-11 06:30:00,63.7,62.2,29.93,North,355,0.0,0.0,95,0.00,,CLR,0.00,VWS V14.01,2013-10-11 10:30:00,
2013-10-11 06:33:00,63.7,62.2,29.93,North,355,0.0,0.0,95,0.00,,OVC050,0.00,VWS V14.01,2013-10-11 10:33:00,
2013-10-11 06:38:00,63.7,62.2,29.93,North,355,0.0,0.0,95,0.00,,OVC050,0.00,VWS V14.01,2013-10-11 10:38:00,
2013-10-11 06:43:00,63.7,62.2,29.93,North,355,0.0,0.0,95,0.00,,OVC050,0.00,VWS V14.01,2013-10-11 10:43:00,
2013-10-11 06:45:00,63.7,62.2,29.93,North,355,0.0,0.0,95,0.00,,CLR,0.00,VWS V14.01,2013-10-11 10:45:00,
2013-10-11 06:48:00,63.7,62.2,29.93,North,355,0.0,0.0,95,0.00,,OVC050,0.00,VWS V14.01,2013-10-11 10:48:00,
2013-10-11 06:53:00,63.8,62.3,29.93,North,355,0.0,0.0,95,0.00,,OVC050,0.00,VWS V14.01,2013-10-11 10:53:00,
2013-10-11 06:58:00,63.7,62.2,29.93,North,355,0.0,0.0,95,0.00,,OVC050,0.00,VWS V14.01,2013-10-11 10:58:00,
2013-10-11 07:00:00,63.7,62.2,29.93,North,355,0.0,0.0,95,0.00,,CLR,0.00,VWS V14.01,2013-10-11 11:00:00,
2013-10-11 07:03:00,63.7,62.2,29.93,North,355,0.0,0.0,95,0.00,,OVC050,0.00,VWS V14.01,2013-10-11 11:03:00,
2013-10-11 07:08:00,63.7,62.2,29.93,North,355,0.0,0.0,95,0.00,,OVC050,0.00,VWS V14.01,2013-10-11 11:08:00,
2013-10-11 07:13:00,63.7,62.2,29.94,North,355,0.0,0.0,95,0.00,,OVC050,0.00,VWS V14.01,2013-10-11 11:13:00,
2013-10-11 07:15:00,63.7,62.2,29.94,North,355,0.0,0.0,95,0.00,,CLR,0.00,VWS V14.01,2013-10-11 11:15:00,
2013-10-11 07:18:00,63.7,62.2,29.94,North,355,0.0,0.0,95,0.00,,OVC050,0.00,VWS V14.01,2013-10-11 11:18:00,
2013-10-11 07:23:00,63.7,62.2,29.93,North,355,0.0,0.0,95,0.00,,OVC050,0.00,VWS V14.01,2013-10-11 11:23:00,
2013-10-11 07:28:00,63.7,62.2,29.94,North,355,0.0,0.0,95,0.00,,OVC050,0.00,VWS V14.01,2013-10-11 11:28:00,
2013-10-11 07:30:00,63.7,62.2,29.94,North,355,0.0,0.0,95,0.00,,CLR,0.00,VWS V14.01,2013-10-11 11:30:00,
2013-10-11 07:33:00,63.7,62.2,29.94,North,355,0.0,0.0,95,0.00,,OVC050,0.00,VWS V14.01,2013-10-11 11:33:00,
2013-10-11 07:38:00,63.8,62.3,29.94,North,355,0.0,0.0,95,0.00,,OVC050,0.00,VWS V14.01,2013-10-11 11:38:00,
2013-10-11 07:43:00,63.8,62.3,29.94,North,355,0.0,0.0,95,0.00,,OVC050,0.00,VWS V14.01,2013-10-11 11:43:00,
2013-10-11 07:45:00,63.8,62.3,29.94,North,355,0.0,0.0,95,0.00,,CLR,0.00,VWS V14.01,2013-10-11 11:45:00,
2013-10-11 07:48:00,63.8,62.3,29.94,North,355,0.0,0.0,95,0.00,,OVC050,0.00,VWS V14.01,2013-10-11 11:48:00,
2013-10-11 07:53:00,63.9,62.4,29.94,North,355,0.0,0.0,95,0.00,,OVC050,0.00,VWS V14.01,2013-10-11 11:53:00,
2013-10-11 07:58:00,63.9,62.4,29.94,North,355,0.0,0.0,95,0.00,,OVC050,0.00,VWS V14.01,2013-10-11 11:58:00,
2013-10-11 08:00:00,64.0,62.5,29.94,North,355,0.0,0.0,95,0.00,,CLR,0.00,VWS V14.01,2013-10-11 12:00:00,
2013-10-11 08:03:00,64.0,62.5,29.95,North,355,0.0,0.0,95,0.00,,OVC050,0.00,VWS V14.01,2013-10-11 12:03:00,
2013-10-11 08:08:00,64.1,62.6,29.95,North,355,0.0,0.0,95,0.00,,OVC050,0.00,VWS V14.01,2013-10-11 12:08:00,
2013-10-11 08:13:00,64.1,62.6,29.95,North,355,0.0,0.0,95,0.00,,OVC050,0.00,VWS V14.01,2013-10-11 12:13:00,
2013-10-11 08:15:00,64.2,62.7,29.95,North,355,0.0,0.0,95,0.00,,CLR,0.00,VWS V14.01,2013-10-11 12:15:00,
2013-10-11 08:18:00,64.2,62.7,29.95,North,355,0.0,0.0,95,0.00,,OVC050,0.00,VWS V14.01,2013-10-11 12:18:00,
2013-10-11 08:23:00,64.3,63.1,29.95,North,355,0.0,0.0,96,0.00,,OVC050,0.00,VWS V14.01,2013-10-11 12:23:00,
2013-10-11 08:28:00,64.4,62.9,29.95,North,355,0.0,0.0,95,0.00,,OVC050,0.00,VWS V14.01,2013-10-11 12:28:00,
2013-10-11 08:30:00,64.5,63.3,29.95,North,355,0.0,0.0,96,0.00,,CLR,0.00,VWS V14.01,2013-10-11 12:30:00,
2013-10-11 08:33:00,64.5,63.0,29.95,North,355,0.0,0.0,95,0.00,,OVC050,0.00,VWS V14.01,2013-10-11 12:33:00,
2013-10-11 08:38:00,64.6,63.1,29.95,North,355,0.0,0.0,95,0.00,,OVC050,0.00,VWS V14.01,2013-10-11 12:38:00,
2013-10-11 08:43:00,64.8,63.3,29.95,North,355,0.0,0.0,95,0.00,,OVC050,0.00,VWS V14.01,2013-10-11 12:43:00,
2013-10-11 08:45:00,64.8,63.3,29.95,North,355,0.0,0.0,95,0.00,,CLR,0.00,VWS V14.01,2013-10-11 12:45:00,
2013-10-11 08:48:00,64.9,63.4,29.95,North,355,0.0,0.0,95,0.00,,OVC050,0.00,VWS V14.01,2013-10-11 12:48:00,
2013-10-11 08:53:00,65.0,63.5,29.95,North,355,0.0,0.0,95,0.00,,OVC050,0.00,VWS V14.01,2013-10-11 12:53:00,
2013-10-11 08:58:00,65.2,63.7,29.95,North,355,0.0,0.0,95,0.00,,OVC050,0.00,VWS V14.01,2013-10-11 12:58:00,
2013-10-11 09:00:00,65.2,63.7,29.95,North,355,0.0,0.0,95,0.00,,CLR,0.00,VWS V14.01,2013-10-11 13:00:00,
2013-10-11 09:03:00,65.4,63.6,29.95,North,355,0.0,0.0,94,0.00,,-RA,0.00,VWS V14.01,2013-10-11 13:03:00,
2013-10-11 09:08:00,65.6,63.8,29.96,North,355,0.0,0.0,94,0.00,,-RA,0.00,VWS V14.01,2013-10-11 13:08:00,
2013-10-11 09:13:00,65.8,64.0,29.96,North,355,0.0,0.0,94,0.00,,-RA,0.00,VWS V14.01,2013-10-11 13:13:00,
2013-10-11 09:15:00,65.9,64.1,29.95,North,355,0.0,0.0,94,0.00,,CLR,0.00,VWS V14.01,2013-10-11 13:15:00,
2013-10-11 09:19:00,66.1,64.3,29.96,North,355,0.0,0.0,94,0.00,,-RA,0.00,VWS V14.01,2013-10-11 13:19:00,
2013-10-11 09:24:00,66.4,64.3,29.96,North,355,0.0,0.0,93,0.00,,-RA,0.00,VWS V14.01,2013-10-11 13:24:00,
2013-10-11 09:29:00,66.7,64.6,29.96,North,355,0.0,0.0,93,0.00,,-RA,0.00,VWS V14.01,2013-10-11 13:29:00,
2013-10-11 09:30:00,66.7,64.6,29.96,North,355,0.0,0.0,93,0.00,,CLR,0.00,VWS V14.01,2013-10-11 13:30:00,
2013-10-11 09:34:00,66.8,64.4,29.96,North,355,0.0,0.0,92,0.00,,-RA,0.00,VWS V14.01,2013-10-11 13:34:00,
2013-10-11 09:39:00,67.1,64.7,29.96,North,355,0.0,0.0,92,0.00,,-RA,0.00,VWS V14.01,2013-10-11 13:39:00,
2013-10-11 09:44:00,67.4,64.7,29.96,North,355,0.0,0.0,91,0.00,,-RA,0.00,VWS V14.01,2013-10-11 13:44:00,
2013-10-11 09:45:00,67.5,64.8,29.96,North,355,0.0,0.0,91,0.00,,CLR,0.00,VWS V14.01,2013-10-11 13:45:00,
2013-10-11 09:49:00,67.7,65.0,29.96,North,355,0.0,0.0,91,0.00,,-RA,0.00,VWS V14.01,2013-10-11 13:49:00,
2013-10-11 09:54:00,68.1,65.1,29.96,North,355,0.0,0.0,90,0.00,,-RA,0.00,VWS V14.01,2013-10-11 13:54:00,
2013-10-11 09:59:00,68.4,65.0,29.96,NNW,348,0.0,2.0,89,0.00,,-RA,0.00,VWS V14.01,2013-10-11 13:59:00,
2013-10-11 10:00:00,68.5,65.1,29.96,NNW,348,0.0,2.0,89,0.00,,CLR,0.00,VWS V14.01,2013-10-11 14:00:00,
2013-10-11 10:04:00,68.7,65.0,29.96,NNW,348,0.0,0.0,88,0.00,,BKN050,0.00,VWS V14.01,2013-10-11 14:04:00,
2013-10-11 10:09:00,69.1,65.4,29.96,NNW,348,0.0,2.0,88,0.00,,BKN050,0.00,VWS V14.01,2013-10-11 14:09:00,
2013-10-11 10:14:00,69.4,65.4,29.96,NNW,348,0.0,2.0,87,0.00,,BKN050,0.00,VWS V14.01,2013-10-11 14:14:00,
2013-10-11 10:15:00,69.4,65.4,29.96,NNW,348,0.0,2.0,87,0.00,,CLR,0.00,VWS V14.01,2013-10-11 14:15:00,
2013-10-11 10:19:00,69.6,65.2,29.96,NNW,348,0.0,0.0,86,0.00,,BKN050,0.00,VWS V14.01,2013-10-11 14:19:00,
2013-10-11 10:24:00,70.0,65.6,29.96,NNW,348,0.0,0.0,86,0.00,,BKN050,0.00,VWS V14.01,2013-10-11 14:24:00,
2013-10-11 10:29:00,70.3,65.6,29.96,NNW,348,0.0,0.0,85,0.00,,BKN050,0.00,VWS V14.01,2013-10-11 14:29:00,
2013-10-11 10:30:00,70.4,65.7,29.96,NNW,348,0.0,0.0,85,0.00,,CLR,0.00,VWS V14.01,2013-10-11 14:30:00,
2013-10-11 10:34:00,70.6,65.5,29.96,WNW,296,0.0,1.0,84,0.00,,BKN050,0.00,VWS V14.01,2013-10-11 14:34:00,
2013-10-11 10:39:00,70.7,65.6,29.96,WNW,296,0.0,1.0,84,0.00,,BKN050,0.00,VWS V14.01,2013-10-11 14:39:00,
2013-10-11 10:44:00,70.8,64.7,29.96,WNW,295,0.0,1.0,81,0.00,,BKN050,0.00,VWS V14.01,2013-10-11 14:44:00,
2013-10-11 10:45:00,70.8,65.0,29.96,WNW,295,0.0,1.0,82,0.00,,CLR,0.00,VWS V14.01,2013-10-11 14:45:00,
2013-10-11 10:49:00,71.1,64.3,29.96,NNE,15,0.0,1.0,79,0.00,,BKN050,0.00,VWS V14.01,2013-10-11 14:49:00,
2013-10-11 10:54:00,71.3,64.8,29.95,NNE,15,0.0,1.0,80,0.00,,BKN050,0.00,VWS V14.01,2013-10-11 14:54:00,
2013-10-11 10:59:00,71.6,64.0,29.95,NNE,15,1.0,2.0,77,0.00,,BKN050,0.00,VWS V14.01,2013-10-11 14:59:00,
2013-10-11 11:00:00,71.7,64.5,29.95,NNE,15,0.0,2.0,78,0.00,,CLR,0.00,VWS V14.01,2013-10-11 15:00:00,
2013-10-11 11:04:00,72.1,64.5,29.95,NNE,15,0.0,0.0,77,0.00,,BKN055,0.00,VWS V14.01,2013-10-11 15:04:00,
2013-10-11 11:09:00,72.6,64.2,29.95,NNE,15,0.0,0.0,75,0.00,,BKN055,0.00,VWS V14.01,2013-10-11 15:09:00,
2013-10-11 11:14:00,72.8,64.0,29.95,NNE,15,0.0,1.0,74,0.00,,BKN055,0.00,VWS V14.01,2013-10-11 15:14:00,
2013-10-11 11:15:00,72.8,64.4,29.95,West,275,0.0,1.0,75,0.00,,CLR,0.00,VWS V14.01,2013-10-11 15:15:00,
2013-10-11 11:19:00,73.1,64.3,29.95,NW,307,0.0,2.0,74,0.00,,BKN055,0.00,VWS V14.01,2013-10-11 15:19:00,
2013-10-11 11:24:00,73.5,63.5,29.94,NW,317,0.0,2.0,71,0.00,,BKN055,0.00,VWS V14.01,2013-10-11 15:24:00,
2013-10-11 11:29:00,73.8,63.4,29.94,NW,320,2.0,2.0,70,0.00,,BKN055,0.00,VWS V14.01,2013-10-11 15:29:00,
2013-10-11 11:30:00,73.9,63.5,29.94,NW,320,2.0,2.0,70,0.00,,CLR,0.00,VWS V14.01,2013-10-11 15:30:00,
2013-10-11 11:34:00,74.2,63.0,29.94,SSW,206,0.0,2.0,68,0.00,,BKN055,0.00,VWS V14.01,2013-10-11 15:34:00,
2013-10-11 11:39:00,74.4,62.7,29.94,ESE,107,0.0,2.0,67,0.00,,BKN055,0.00,VWS V14.01,2013-10-11 15:39:00,
2013-10-11 11:45:00,74.7,62.6,29.94,North,360,0.0,5.0,66,0.00,,BKN055,0.00,VWS V14.01,2013-10-11 15:45:00,
2013-10-11 11:55:00,75.2,63.1,29.94,NW,322,0.0,5.0,66,0.00,,BKN055,0.00,VWS V14.01,2013-10-11 15:55:00,
2013-10-11 12:00:00,75.5,62.9,29.94,NE,47,3.0,5.0,65,0.00,,BKN055,0.00,VWS V14.01,2013-10-11 16:00:00,
2013-10-11 12:05:00,75.9,63.3,29.94,SSW,200,0.0,2.0,65,0.00,,CLR,0.00,VWS V14.01,2013-10-11 16:05:00,
2013-10-11 12:10:00,76.3,64.6,29.93,WSW,245,0.0,2.0,67,0.00,,CLR,0.00,VWS V14.01,2013-10-11 16:10:00,
2013-10-11 12:15:00,76.5,63.4,29.93,North,355,0.0,2.0,64,0.00,,CLR,0.00,VWS V14.01,2013-10-11 16:15:00,
2013-10-11 12:20:00,76.7,64.1,29.93,ENE,67,7.0,7.0,65,0.00,,CLR,0.00,VWS V14.01,2013-10-11 16:20:00,
2013-10-11 12:25:00,76.8,63.7,29.93,NNW,336,2.0,7.0,64,0.00,,CLR,0.00,VWS V14.01,2013-10-11 16:25:00,
2013-10-11 12:30:00,76.8,63.7,29.93,SW,228,0.0,7.0,64,0.00,,CLR,0.00,VWS V14.01,2013-10-11 16:30:00,
2013-10-11 12:35:00,77.0,64.3,29.93,WSW,256,1.0,7.0,65,0.00,,CLR,0.00,VWS V14.01,2013-10-11 16:35:00,
2013-10-11 12:40:00,77.5,63.9,29.92,North,360,0.0,7.0,63,0.00,,CLR,0.00,VWS V14.01,2013-10-11 16:40:00,
2013-10-11 12:45:00,77.8,64.2,29.92,NE,48,2.0,7.0,63,0.00,,CLR,0.00,VWS V14.01,2013-10-11 16:45:00,
2013-10-11 12:50:00,78.0,63.5,29.92,NW,311,2.0,4.0,61,0.00,,CLR,0.00,VWS V14.01,2013-10-11 16:50:00,
2013-10-11 12:55:00,78.5,64.0,29.92,NW,325,0.0,7.0,61,0.00,,CLR,0.00,VWS V14.01,2013-10-11 16:55:00,
2013-10-11 13:00:00,78.7,63.7,29.91,WNW,291,4.0,7.0,60,0.00,,CLR,0.00,VWS V14.01,2013-10-11 17:00:00,
2013-10-11 13:05:00,78.7,64.1,29.91,WNW,296,1.0,9.0,61,0.00,,BKN050,0.00,VWS V14.01,2013-10-11 17:05:00,
2013-10-11 13:10:00,78.9,64.3,29.91,NW,310,1.0,9.0,61,0.00,,BKN050,0.00,VWS V14.01,2013-10-11 17:10:00,
2013-10-11 13:15:00,79.1,63.6,29.91,NW,320,1.0,9.0,59,0.00,,BKN050,0.00,VWS V14.01,2013-10-11 17:15:00,
2013-10-11 13:20:00,78.9,63.4,29.91,NNW,329,2.0,5.0,59,0.00,,BKN050,0.00,VWS V14.01,2013-10-11 17:20:00,
2013-10-11 13:25:00,78.7,63.7,29.90,NW,321,0.0,5.0,60,0.00,,BKN050,0.00,VWS V14.01,2013-10-11 17:25:00,
2013-10-11 13:30:00,78.9,64.3,29.90,WNW,292,2.0,5.0,61,0.00,,BKN050,0.00,VWS V14.01,2013-10-11 17:30:00,
2013-10-11 13:35:00,79.3,64.2,29.90,ESE,105,0.0,2.0,60,0.00,,BKN050,0.00,VWS V14.01,2013-10-11 17:35:00,
2013-10-11 13:40:00,79.7,64.1,29.89,NNE,17,0.0,2.0,59,0.00,,BKN050,0.00,VWS V14.01,2013-10-11 17:40:00,
2013-10-11 13:45:00,79.7,63.6,29.90,NW,309,1.0,5.0,58,0.00,,BKN050,0.00,VWS V14.01,2013-10-11 17:45:00,
2013-10-11 13:50:00,79.4,63.8,29.89,NW,309,1.0,3.0,59,0.00,,BKN050,0.00,VWS V14.01,2013-10-11 17:50:00,
2013-10-11 13:55:00,79.4,64.3,29.89,WNW,284,2.0,3.0,60,0.00,,BKN050,0.00,VWS V14.01,2013-10-11 17:55:00,
2013-10-11 14:00:00,80.0,64.9,29.88,SW,224,5.0,8.0,60,0.00,,BKN050,0.00,VWS V14.01,2013-10-11 18:00:00,
2013-10-11 14:05:00,80.4,63.8,29.88,NE,42,0.0,7.0,57,0.00,,BKN060,0.00,VWS V14.01,2013-10-11 18:05:00,
2013-10-11 14:10:00,80.7,64.6,29.88,WNW,301,0.0,7.0,58,0.00,,BKN060,0.00,VWS V14.01,2013-10-11 18:10:00,
2013-10-11 14:15:00,80.8,65.6,29.88,WNW,302,0.0,0.0,60,0.00,,BKN060,0.00,VWS V14.01,2013-10-11 18:15:00,
2013-10-11 14:20:00,81.0,64.8,29.88,NNW,329,5.0,5.0,58,0.00,,BKN060,0.00,VWS V14.01,2013-10-11 18:20:00,
2013-10-11 14:26:00,80.8,64.7,29.88,WNW,301,0.0,6.0,58,0.00,,BKN060,0.00,VWS V14.01,2013-10-11 18:26:00,
2013-10-11 14:30:00,80.8,65.2,29.87,WNW,301,0.0,6.0,59,0.00,,CLR,0.00,VWS V14.01,2013-10-11 18:30:00,
2013-10-11 14:31:00,80.9,65.2,29.87,WNW,300,1.0,1.0,59,0.00,,BKN060,0.00,VWS V14.01,2013-10-11 18:31:00,
2013-10-11 14:36:00,81.4,64.2,29.87,North,355,1.0,5.0,56,0.00,,BKN060,0.00,VWS V14.01,2013-10-11 18:36:00,
2013-10-11 14:41:00,82.2,65.5,29.87,SW,220,0.0,5.0,57,0.00,,BKN060,0.00,VWS V14.01,2013-10-11 18:41:00,
2013-10-11 14:45:00,83.0,65.7,29.87,North,360,1.0,5.0,56,0.00,,CLR,0.00,VWS V14.01,2013-10-11 18:45:00,
2013-10-11 14:46:00,83.0,65.7,29.87,NNW,341,1.0,1.0,56,0.00,,BKN060,0.00,VWS V14.01,2013-10-11 18:46:00,
2013-10-11 14:51:00,83.3,64.4,29.87,NW,319,2.0,5.0,53,0.00,,BKN060,0.00,VWS V14.01,2013-10-11 18:51:00,
2013-10-11 14:56:00,82.5,64.2,29.87,NNW,340,0.0,5.0,54,0.00,,BKN060,0.00,VWS V14.01,2013-10-11 18:56:00,
2013-10-11 15:00:00,82.0,64.3,29.87,NNW,347,2.0,5.0,55,0.00,,CLR,0.00,VWS V14.01,2013-10-11 19:00:00,
2013-10-11 15:01:00,82.0,64.3,29.87,NNW,347,0.0,2.0,55,0.00,,FEW060,0.00,VWS V14.01,2013-10-11 19:01:00,
2013-10-11 15:06:00,81.9,65.7,29.87,North,350,0.0,2.0,58,0.00,,FEW060,0.00,VWS V14.01,2013-10-11 19:06:00,
2013-10-11 15:11:00,82.4,65.1,29.87,SSW,198,0.0,3.0,56,0.00,,FEW060,0.00,VWS V14.01,2013-10-11 19:11:00,
2013-10-11 15:15:00,82.7,64.9,29.86,NW,319,1.0,5.0,55,0.00,,CLR,0.00,VWS V14.01,2013-10-11 19:15:00,
2013-10-11 15:16:00,82.7,64.9,29.86,NW,319,1.0,2.0,55,0.00,,FEW060,0.00,VWS V14.01,2013-10-11 19:16:00,
2013-10-11 15:21:00,82.1,64.9,29.86,NW,319,2.0,4.0,56,0.00,,FEW060,0.00,VWS V14.01,2013-10-11 19:21:00,
2013-10-11 15:26:00,81.5,64.8,29.86,NW,319,0.0,4.0,57,0.00,,FEW060,0.00,VWS V14.01,2013-10-11 19:26:00,
2013-10-11 15:30:00,81.1,64.4,29.86,NW,317,0.0,4.0,57,0.00,,CLR,0.00,VWS V14.01,2013-10-11 19:30:00,
2013-10-11 15:31:00,81.0,64.3,29.86,NW,317,0.0,0.0,57,0.00,,FEW060,0.00,VWS V14.01,2013-10-11 19:31:00,
2013-10-11 15:36:00,81.0,64.3,29.86,WNW,299,0.0,1.0,57,0.00,,FEW060,0.00,VWS V14.01,2013-10-11 19:36:00,
2013-10-11 15:41:00,81.5,64.3,29.85,NNE,24,0.0,2.0,56,0.00,,FEW060,0.00,VWS V14.01,2013-10-11 19:41:00,
2013-10-11 15:45:00,82.1,65.4,29.86,NNE,24,0.0,2.0,57,0.00,,CLR,0.00,VWS V14.01,2013-10-11 19:45:00,
2013-10-11 15:46:00,82.2,65.5,29.85,NNE,24,0.0,1.0,57,0.00,,FEW060,0.00,VWS V14.01,2013-10-11 19:46:00,
2013-10-11 15:51:00,82.9,65.1,29.86,NNE,24,0.0,1.0,55,0.00,,FEW060,0.00,VWS V14.01,2013-10-11 19:51:00,
2013-10-11 15:56:00,83.4,65.6,29.85,NNE,24,0.0,1.0,55,0.00,,FEW060,0.00,VWS V14.01,2013-10-11 19:56:00,
2013-10-11 16:00:00,83.3,64.4,29.86,NNW,330,0.0,6.0,53,0.00,,CLR,0.00,VWS V14.01,2013-10-11 20:00:00,
2013-10-11 16:01:00,83.3,64.9,29.86,NNW,330,0.0,0.0,54,0.00,,BKN060,0.00,VWS V14.01,2013-10-11 20:01:00,
2013-10-11 16:06:00,83.0,65.2,29.86,NW,307,0.0,1.0,55,0.00,,BKN060,0.00,VWS V14.01,2013-10-11 20:06:00,
2013-10-11 16:11:00,82.8,65.5,29.86,NW,307,0.0,1.0,56,0.00,,BKN060,0.00,VWS V14.01,2013-10-11 20:11:00,
2013-10-11 16:15:00,82.6,65.8,29.86,SSW,198,2.0,2.0,57,0.00,,CLR,0.00,VWS V14.01,2013-10-11 20:15:00,
2013-10-11 16:16:00,82.5,64.7,29.86,SSW,198,0.0,2.0,55,0.00,,BKN060,0.00,VWS V14.01,2013-10-11 20:16:00,
2013-10-11 16:21:00,81.8,64.1,29.86,SSW,198,0.0,2.0,55,0.00,,BKN060,0.00,VWS V14.01,2013-10-11 20:21:00,
2013-10-11 16:26:00,81.3,64.6,29.85,SSW,198,0.0,2.0,57,0.00,,BKN060,0.00,VWS V14.01,2013-10-11 20:26:00,
2013-10-11 16:30:00,81.2,64.0,29.85,SSW,198,0.0,2.0,56,0.00,,CLR,0.00,VWS V14.01,2013-10-11 20:30:00,
2013-10-11 16:31:00,81.1,64.4,29.85,SSW,198,0.0,0.0,57,0.00,,BKN060,0.00,VWS V14.01,2013-10-11 20:31:00,
2013-10-11 16:36:00,80.7,65.1,29.85,SSW,198,0.0,0.0,59,0.00,,BKN060,0.00,VWS V14.01,2013-10-11 20:36:00,
2013-10-11 16:41:00,80.6,65.0,29.85,SW,234,0.0,2.0,59,0.00,,BKN060,0.00,VWS V14.01,2013-10-11 20:41:00,
2013-10-11 16:45:00,80.4,63.8,29.85,SW,234,0.0,2.0,57,0.00,,CLR,0.00,VWS V14.01,2013-10-11 20:45:00,
2013-10-11 16:46:00,80.4,64.8,29.85,SW,234,0.0,0.0,59,0.00,,BKN060,0.00,VWS V14.01,2013-10-11 20:46:00,
2013-10-11 16:51:00,80.3,65.2,29.85,SW,234,0.0,0.0,60,0.00,,BKN060,0.00,VWS V14.01,2013-10-11 20:51:00,
2013-10-11 16:56:00,80.1,66.8,29.85,SW,234,0.0,0.0,64,0.00,,BKN060,0.00,VWS V14.01,2013-10-11 20:56:00,
2013-10-11 17:00:00,79.7,66.5,29.85,SW,234,0.0,0.0,64,0.00,,CLR,0.00,VWS V14.01,2013-10-11 21:00:00,
2013-10-11 17:01:00,79.7,66.5,29.85,SW,234,0.0,0.0,64,0.00,,CLR,0.00,VWS V14.01,2013-10-11 21:01:00,
2013-10-11 17:06:00,79.3,66.5,29.85,SW,234,0.0,0.0,65,0.00,,CLR,0.00,VWS V14.01,2013-10-11 21:06:00,
2013-10-11 17:11:00,78.8,66.1,29.85,SW,234,0.0,0.0,65,0.00,,CLR,0.00,VWS V14.01,2013-10-11 21:11:00,
2013-10-11 17:15:00,78.7,66.4,29.85,SW,234,0.0,0.0,66,0.00,,CLR,0.00,VWS V14.01,2013-10-11 21:15:00,
2013-10-11 17:16:00,78.5,66.2,29.85,SW,234,0.0,0.0,66,0.00,,CLR,0.00,VWS V14.01,2013-10-11 21:16:00,
2013-10-11 17:21:00,78.1,66.3,29.85,SW,234,0.0,0.0,67,0.00,,CLR,0.00,VWS V14.01,2013-10-11 21:21:00,
2013-10-11 17:26:00,77.7,66.3,29.85,SW,234,0.0,0.0,68,0.00,,CLR,0.00,VWS V14.01,2013-10-11 21:26:00,
2013-10-11 17:30:00,77.4,66.4,29.85,SW,234,0.0,0.0,69,0.00,,CLR,0.00,VWS V14.01,2013-10-11 21:30:00,
2013-10-11 17:45:00,76.8,66.3,29.85,SW,234,0.0,0.0,70,0.00,,CLR,0.00,VWS V14.01,2013-10-11 21:45:00,
2013-10-11 17:50:00,76.6,66.5,29.85,SW,234,0.0,0.0,71,0.00,,CLR,0.00,VWS V14.01,2013-10-11 21:50:00,
2013-10-11 17:55:00,76.5,66.8,29.85,SW,234,0.0,0.0,72,0.00,,CLR,0.00,VWS V14.01,2013-10-11 21:55:00,
2013-10-11 18:00:00,76.3,67.8,29.86,SW,234,0.0,0.0,75,0.00,,CLR,0.00,VWS V14.01,2013-10-11 22:00:00,
2013-10-11 18:05:00,75.9,67.0,29.86,SW,234,0.0,0.0,74,0.00,,SCT060,0.00,VWS V14.01,2013-10-11 22:05:00,
2013-10-11 18:10:00,75.6,67.1,29.86,SW,234,0.0,0.0,75,0.00,,SCT060,0.00,VWS V14.01,2013-10-11 22:10:00,
2013-10-11 18:15:00,75.2,66.7,29.86,SW,234,0.0,0.0,75,0.00,,SCT060,0.00,VWS V14.01,2013-10-11 22:15:00,
2013-10-11 18:20:00,74.9,67.2,29.86,SW,234,0.0,0.0,77,0.00,,SCT060,0.00,VWS V14.01,2013-10-11 22:20:00,
2013-10-11 18:25:00,74.6,67.3,29.86,SW,234,0.0,0.0,78,0.00,,SCT060,0.00,VWS V14.01,2013-10-11 22:25:00,
2013-10-11 18:30:00,74.2,67.3,29.86,SW,234,0.0,0.0,79,0.00,,SCT060,0.00,VWS V14.01,2013-10-11 22:30:00,
2013-10-11 18:35:00,73.8,66.5,29.86,SW,234,0.0,0.0,78,0.00,,SCT060,0.00,VWS V14.01,2013-10-11 22:35:00,
2013-10-11 18:40:00,73.4,66.9,29.86,SW,234,0.0,0.0,80,0.00,,SCT060,0.00,VWS V14.01,2013-10-11 22:40:00,
2013-10-11 18:45:00,73.0,66.5,29.86,SW,234,0.0,0.0,80,0.00,,SCT060,0.00,VWS V14.01,2013-10-11 22:45:00,
2013-10-11 18:50:00,72.6,65.7,29.86,SW,234,0.0,0.0,79,0.00,,SCT060,0.00,VWS V14.01,2013-10-11 22:50:00,
2013-10-11 18:55:00,72.2,65.7,29.86,SW,234,0.0,0.0,80,0.00,,SCT060,0.00,VWS V14.01,2013-10-11 22:55:00,
2013-10-11 19:00:00,71.8,65.7,29.86,SW,234,0.0,0.0,81,0.00,,SCT060,0.00,VWS V14.01,2013-10-11 23:00:00,
2013-10-11 19:05:00,71.4,65.6,29.87,SW,234,0.0,0.0,82,0.00,,SCT070,0.00,VWS V14.01,2013-10-11 23:05:00,
2013-10-11 19:10:00,71.1,65.7,29.87,SW,234,0.0,0.0,83,0.00,,SCT070,0.00,VWS V14.01,2013-10-11 23:10:00,
2013-10-11 19:15:00,70.7,65.3,29.87,SW,234,0.0,0.0,83,0.00,,SCT070,0.00,VWS V14.01,2013-10-11 23:15:00,
2013-10-11 19:21:00,70.4,65.3,29.87,SW,234,0.0,0.0,84,0.00,,SCT070,0.00,VWS V14.01,2013-10-11 23:21:00,
2013-10-11 19:26:00,70.1,65.4,29.87,SW,234,0.0,0.0,85,0.00,,SCT070,0.00,VWS V14.01,2013-10-11 23:26:00,
2013-10-11 19:30:00,69.8,65.1,29.87,SW,234,0.0,0.0,85,0.00,,OVC060,0.00,VWS V14.01,2013-10-11 23:30:00,
2013-10-11 19:31:00,69.8,65.1,29.87,SW,234,0.0,0.0,85,0.00,,SCT070,0.00,VWS V14.01,2013-10-11 23:31:00,
2013-10-11 19:36:00,69.5,65.1,29.87,SW,234,0.0,0.0,86,0.00,,SCT070,0.00,VWS V14.01,2013-10-11 23:36:00,
2013-10-11 19:41:00,69.3,64.9,29.88,SW,234,0.0,0.0,86,0.00,,SCT070,0.00,VWS V14.01,2013-10-11 23:41:00,
2013-10-11 19:45:00,69.0,65.0,29.88,SW,234,0.0,0.0,87,0.00,,OVC060,0.00,VWS V14.01,2013-10-11 23:45:00,
2013-10-11 19:46:00,69.0,65.0,29.88,SW,234,0.0,0.0,87,0.00,,SCT070,0.00,VWS V14.01,2013-10-11 23:46:00,
2013-10-11 19:51:00,68.8,64.8,29.88,SW,234,0.0,0.0,87,0.00,,SCT070,0.00,VWS V14.01,2013-10-11 23:51:00,
2013-10-11 19:56:00,68.7,65.0,29.88,SW,234,0.0,0.0,88,0.00,,SCT070,0.00,VWS V14.01,2013-10-11 23:56:00,
2013-10-11 20:00:00,68.6,64.9,29.88,SW,234,0.0,0.0,88,0.00,,OVC060,0.00,VWS V14.01,2013-10-12 00:00:00,
2013-10-11 20:01:00,68.6,64.9,29.88,SW,234,0.0,0.0,88,0.00,,FEW060,0.00,VWS V14.01,2013-10-12 00:01:00,
2013-10-11 20:06:00,68.5,65.1,29.88,SW,234,0.0,0.0,89,0.00,,FEW060,0.00,VWS V14.01,2013-10-12 00:06:00,
2013-10-11 20:11:00,68.4,65.0,29.88,SW,234,0.0,0.0,89,0.00,,FEW060,0.00,VWS V14.01,2013-10-12 00:11:00,
2013-10-11 20:15:00,68.4,65.4,29.88,SW,234,0.0,0.0,90,0.00,,OVC060,0.00,VWS V14.01,2013-10-12 00:15:00,
2013-10-11 20:16:00,68.4,65.4,29.88,SW,234,0.0,0.0,90,0.00,,FEW060,0.00,VWS V14.01,2013-10-12 00:16:00,
2013-10-11 20:21:00,68.3,65.3,29.88,SW,234,0.0,0.0,90,0.00,,FEW060,0.00,VWS V14.01,2013-10-12 00:21:00,
2013-10-11 20:26:00,68.3,65.3,29.88,SW,234,0.0,0.0,90,0.00,,FEW060,0.00,VWS V14.01,2013-10-12 00:26:00,
2013-10-11 20:30:00,68.3,65.3,29.88,SW,234,0.0,0.0,90,0.00,,OVC060,0.00,VWS V14.01,2013-10-12 00:30:00,
2013-10-11 20:31:00,68.3,65.6,29.89,SW,234,0.0,0.0,91,0.00,,FEW060,0.00,VWS V14.01,2013-10-12 00:31:00,
2013-10-11 20:36:00,68.3,65.6,29.89,SW,234,0.0,0.0,91,0.00,,FEW060,0.00,VWS V14.01,2013-10-12 00:36:00,
2013-10-11 20:41:00,68.3,65.3,29.89,SW,234,0.0,0.0,90,0.00,,FEW060,0.00,VWS V14.01,2013-10-12 00:41:00,
2013-10-11 20:45:00,68.2,65.5,29.89,SW,234,0.0,0.0,91,0.00,,OVC060,0.00,VWS V14.01,2013-10-12 00:45:00,
2013-10-11 20:46:00,68.2,65.5,29.89,SW,234,0.0,0.0,91,0.00,,FEW060,0.00,VWS V14.01,2013-10-12 00:46:00,
2013-10-11 20:51:00,68.2,65.2,29.89,SW,234,0.0,0.0,90,0.00,,FEW060,0.00,VWS V14.01,2013-10-12 00:51:00,
2013-10-11 20:56:00,68.1,65.4,29.89,SW,234,0.0,0.0,91,0.00,,FEW060,0.00,VWS V14.01,2013-10-12 00:56:00,
2013-10-11 21:00:00,68.1,65.1,29.89,SW,234,0.0,0.0,90,0.00,,OVC060,0.00,VWS V14.01,2013-10-12 01:00:00,
2013-10-11 21:01:00,68.1,65.1,29.89,SW,234,0.0,0.0,90,0.00,,BKN065,0.00,VWS V14.01,2013-10-12 01:01:00,
2013-10-11 21:06:00,68.0,65.0,29.89,SW,234,0.0,0.0,90,0.00,,BKN065,0.00,VWS V14.01,2013-10-12 01:06:00,
2013-10-11 21:11:00,68.0,65.0,29.89,SW,234,0.0,0.0,90,0.00,,BKN065,0.00,VWS V14.01,2013-10-12 01:11:00,
2013-10-11 21:15:00,68.1,65.4,29.90,SW,234,0.0,0.0,91,0.00,,OVC060,0.00,VWS V14.01,2013-10-12 01:15:00,
2013-10-11 21:16:00,68.1,65.4,29.90,SW,234,0.0,0.0,91,0.00,,BKN065,0.00,VWS V14.01,2013-10-12 01:16:00,
2013-10-11 21:21:00,68.2,65.5,29.90,SW,234,0.0,0.0,91,0.00,,BKN065,0.00,VWS V14.01,2013-10-12 01:21:00,
2013-10-11 21:26:00,68.2,65.2,29.90,SW,234,0.0,0.0,90,0.00,,BKN065,0.00,VWS V14.01,2013-10-12 01:26:00,
2013-10-11 21:30:00,68.3,65.3,29.90,SW,234,0.0,0.0,90,0.00,,OVC060,0.00,VWS V14.01,2013-10-12 01:30:00,
2013-10-11 21:31:00,68.3,65.3,29.90,SW,234,0.0,0.0,90,0.00,,BKN065,0.00,VWS V14.01,2013-10-12 01:31:00,
2013-10-11 21:36:00,68.4,65.4,29.90,SW,234,0.0,0.0,90,0.00,,BKN065,0.00,VWS V14.01,2013-10-12 01:36:00,
2013-10-11 21:41:00,68.5,65.5,29.90,SW,234,0.0,0.0,90,0.00,,BKN065,0.00,VWS V14.01,2013-10-12 01:41:00,
2013-10-11 21:45:00,68.6,65.6,29.91,SW,234,0.0,0.0,90,0.00,,OVC060,0.00,VWS V14.01,2013-10-12 01:45:00,
2013-10-11 21:52:00,68.8,65.4,29.91,SW,234,0.0,0.0,89,0.00,,BKN065,0.00,VWS V14.01,2013-10-12 01:52:00,
2013-10-11 21:57:00,68.8,65.4,29.91,SW,234,0.0,0.0,89,0.00,,BKN065,0.00,VWS V14.01,2013-10-12 01:57:00,
2013-10-11 22:00:00,68.9,65.5,29.91,SW,234,0.0,0.0,89,0.00,,OVC060,0.00,VWS V14.01,2013-10-12 02:00:00,
2013-10-11 22:02:00,68.9,65.5,29.91,SW,234,0.0,0.0,89,0.00,,BKN080,0.00,VWS V14.01,2013-10-12 02:02:00,
2013-10-11 22:07:00,69.0,65.6,29.91,SW,234,0.0,0.0,89,0.00,,BKN080,0.00,VWS V14.01,2013-10-12 02:07:00,
2013-10-11 22:12:00,69.1,65.7,29.91,SW,234,0.0,0.0,89,0.00,,BKN080,0.00,VWS V14.01,2013-10-12 02:12:00,
2013-10-11 22:15:00,69.1,65.7,29.91,SW,234,0.0,0.0,89,0.00,,OVC060,0.00,VWS V14.01,2013-10-12 02:15:00,
2013-10-11 22:17:00,69.2,65.8,29.91,SW,234,0.0,0.0,89,0.00,,BKN080,0.00,VWS V14.01,2013-10-12 02:17:00,
2013-10-11 22:22:00,69.2,65.8,29.91,SW,234,0.0,0.0,89,0.00,,BKN080,0.00,VWS V14.01,2013-10-12 02:22:00,
2013-10-11 22:27:00,69.2,65.8,29.91,SW,234,0.0,0.0,89,0.00,,BKN080,0.00,VWS V14.01,2013-10-12 02:27:00,
2013-10-11 22:30:00,69.2,65.5,29.91,SW,234,0.0,0.0,88,0.00,,OVC060,0.00,VWS V14.01,2013-10-12 02:30:00,
2013-10-11 22:32:00,69.2,65.5,29.91,SW,234,0.0,0.0,88,0.00,,BKN080,0.00,VWS V14.01,2013-10-12 02:32:00,
2013-10-11 22:37:00,69.2,65.8,29.91,SW,234,0.0,0.0,89,0.00,,BKN080,0.00,VWS V14.01,2013-10-12 02:37:00,
2013-10-11 22:42:00,69.3,65.9,29.91,SW,234,0.0,0.0,89,0.00,,BKN080,0.00,VWS V14.01,2013-10-12 02:42:00,
2013-10-11 22:45:00,69.3,66.2,29.91,SW,234,0.0,0.0,90,0.00,,OVC060,0.00,VWS V14.01,2013-10-12 02:45:00,
2013-10-11 22:48:00,69.3,66.2,29.91,SW,234,0.0,0.0,90,0.00,,BKN080,0.00,VWS V14.01,2013-10-12 02:48:00,
2013-10-11 22:53:00,69.3,66.2,29.91,SW,234,0.0,0.0,90,0.00,,BKN080,0.00,VWS V14.01,2013-10-12 02:53:00,
2013-10-11 22:58:00,69.3,66.2,29.92,SW,234,0.0,0.0,90,0.00,,BKN080,0.00,VWS V14.01,2013-10-12 02:58:00,
2013-10-11 23:00:00,69.2,66.2,29.92,SW,234,0.0,0.0,90,0.00,,OVC060,0.00,VWS V14.01,2013-10-12 03:00:00,
2013-10-11 23:03:00,69.2,66.2,29.92,SW,234,0.0,0.0,90,0.00,,OVC085,0.00,VWS V14.01,2013-10-12 03:03:00,
2013-10-11 23:08:00,69.1,66.1,29.91,SW,234,0.0,0.0,90,0.00,,OVC085,0.00,VWS V14.01,2013-10-12 03:08:00,
2013-10-11 23:13:00,69.0,65.9,29.91,SW,234,0.0,0.0,90,0.00,,OVC085,0.00,VWS V14.01,2013-10-12 03:13:00,
2013-10-11 23:15:00,68.9,65.8,29.92,SW,234,0.0,0.0,90,0.00,,OVC060,0.00,VWS V14.01,2013-10-12 03:15:00,
2013-10-11 23:18:00,68.9,65.8,29.92,SW,234,0.0,0.0,90,0.00,,OVC085,0.00,VWS V14.01,2013-10-12 03:18:00,
2013-10-11 23:23:00,68.8,65.8,29.92,SW,234,0.0,0.0,90,0.00,,OVC085,0.00,VWS V14.01,2013-10-12 03:23:00,
2013-10-11 23:28:00,68.7,65.7,29.91,SW,234,0.0,0.0,90,0.00,,OVC085,0.00,VWS V14.01,2013-10-12 03:28:00,
2013-10-11 23:30:00,68.7,65.7,29.91,SW,234,0.0,0.0,90,0.00,,OVC060,0.00,VWS V14.01,2013-10-12 03:30:00,
2013-10-11 23:33:00,68.6,65.6,29.91,SW,234,0.0,0.0,90,0.00,,OVC085,0.00,VWS V14.01,2013-10-12 03:33:00,
2013-10-11 23:38:00,68.5,65.5,29.91,SW,234,0.0,0.0,90,0.00,,OVC085,0.00,VWS V14.01,2013-10-12 03:38:00,
2013-10-11 23:43:00,68.4,65.4,29.91,SW,234,0.0,0.0,90,0.00,,OVC085,0.00,VWS V14.01,2013-10-12 03:43:00,
2013-10-11 23:45:00,68.3,65.3,29.91,SW,234,0.0,0.0,90,0.00,,OVC060,0.00,VWS V14.01,2013-10-12 03:45:00,
2013-10-11 23:48:00,68.3,65.3,29.91,SW,234,0.0,0.0,90,0.00,,OVC085,0.00,VWS V14.01,2013-10-12 03:48:00,
2013-10-11 23:53:00,68.1,65.1,29.91,SW,234,0.0,0.0,90,0.00,,OVC085,0.00,VWS V14.01,2013-10-12 03:53:00,
2013-10-11 23:58:00,68.0,65.0,29.91,SW,234,0.0,0.0,90,0.00,,OVC085,0.00,VWS V14.01,2013-10-12 03:58:00,